Time;durP1;ratioP1;P1;durP2;ratioP2;P2;SDS_P1;SDS_P2;PMS_P1;PMS_P2;Temp;Humidity;BMP_temperature;BMP_pressure;BME280_temperature;BME280_humidity;BME280_pressure;Samples;Min_cycle;Max_cycle;Signal;HPM_P1;HPM_P2
2023/07/30 00:01:00;;;;;;;;;;;;;;;32.09;32.99;97549.69;5116596;27;19915;-89
2023/07/30 00:03:26;;;;;;;;;;;;;;;31.88;33.29;97558.75;5115947;28;20292;-89
2023/07/30 00:05:53;;;;;;;;;;;;;;;31.89;33.92;97560.31;5114941;28;20023;-89
2023/07/30 00:08:20;;;;;;;;;;;;;;;31.98;34.07;97563.78;5116289;28;20368;-88
2023/07/30 00:10:46;;;;;;;;;;;;;;;31.85;34.24;97559.75;5115822;28;19954;-89
2023/07/30 00:13:12;;;;;;;;;;;;;;;32.00;33.63;97557.59;5116155;28;19916;-89
2023/07/30 00:15:38;;;;;;;;;;;;;;;31.89;33.92;97555.41;5116294;28;20361;-89
2023/07/30 00:18:04;;;;;;;;;;;;;;;32.08;33.88;97542.47;5116333;27;19916;-89
2023/07/30 00:20:30;;;;;;;;;;;;;;;32.12;33.37;97541.44;5115989;28;19962;-89
2023/07/30 00:22:56;;;;;;;;;;;;;;;32.12;33.34;97538.59;5115861;28;19926;-89
2023/07/30 00:25:22;;;;;;;;;;;;;;;31.96;33.47;97542.81;5114598;28;20006;-89
2023/07/30 00:27:48;;;;;;;;;;;;;;;31.98;32.99;97540.28;5115778;28;20022;-89
2023/07/30 00:30:15;;;;;;;;;;;;;;;31.99;33.34;97539.81;5115664;28;20436;-89
2023/07/30 00:32:43;;;;;;;;;;;;;;;31.94;33.33;97546.19;5115745;28;19915;-89
2023/07/30 00:35:10;;;;;;;;;;;;;;;32.06;33.18;97536.53;5132923;27;20292;-88
2023/07/30 00:37:36;;;;;;;;;;;;;;;32.17;32.70;97535.03;5136345;27;20279;-89
2023/07/30 00:40:03;;;;;;;;;;;;;;;32.26;32.95;97532.81;5135954;27;19947;-89
2023/07/30 00:42:29;;;;;;;;;;;;;;;32.12;32.69;97535.78;5136138;27;19955;-89
2023/07/30 00:44:55;;;;;;;;;;;;;;;32.15;33.17;97538.41;5136039;27;19919;-89
2023/07/30 00:47:21;;;;;;;;;;;;;;;32.25;33.21;97539.78;5134505;27;19915;-89
2023/07/30 00:49:48;;;;;;;;;;;;;;;32.12;32.68;97542.22;5135906;27;19920;-89
2023/07/30 00:52:18;;;;;;;;;;;;;;;32.09;33.11;97538.34;5134909;27;19923;-89
2023/07/30 00:54:44;;;;;;;;;;;;;;;32.26;32.92;97529.97;5135701;27;19923;-89
2023/07/30 00:57:11;;;;;;;;;;;;;;;32.24;32.95;97543.91;5135887;27;19961;-89
2023/07/30 00:59:37;;;;;;;;;;;;;;;32.40;32.51;97540.44;5127720;27;20461;-89
2023/07/30 01:02:04;;;;;;;;;;;;;;;32.17;32.70;97547.19;5113545;28;19923;-88
2023/07/30 01:04:30;;;;;;;;;;;;;;;32.27;32.59;97551.44;5115131;28;20284;-88
2023/07/30 01:06:56;;;;;;;;;;;;;;;32.38;32.38;97553.56;5115027;28;19920;-89
2023/07/30 01:09:22;;;;;;;;;;;;;;;32.58;32.13;97567.75;5134152;27;20018;-89
2023/07/30 01:11:49;;;;;;;;;;;;;;;32.69;31.93;97570.66;5135620;27;19959;-89
2023/07/30 01:14:16;;;;;;;;;;;;;;;32.72;31.97;97575.34;5135160;27;19915;-89
2023/07/30 01:16:42;;;;;;;;;;;;;;;32.64;32.00;97575.03;5135381;27;19984;-89
2023/07/30 01:19:09;;;;;;;;;;;;;;;32.54;32.04;97573.66;5135373;27;20379;-89
2023/07/30 01:21:35;;;;;;;;;;;;;;;32.28;32.55;97572.84;5132079;27;19965;-89
2023/07/30 01:24:01;;;;;;;;;;;;;;;32.27;32.34;97570.53;5114963;28;20269;-89
2023/07/30 01:26:32;;;;;;;;;;;;;;;32.35;32.32;97569.56;5134399;27;20325;-89
2023/07/30 01:29:00;;;;;;;;;;;;;;;32.55;32.41;97574.44;5135039;27;20024;-89
2023/07/30 01:31:26;;;;;;;;;;;;;;;32.67;32.10;97574.00;5135205;27;19926;-89
2023/07/30 01:33:54;;;;;;;;;;;;;;;32.51;32.16;97573.88;5135183;27;19915;-89
2023/07/30 01:36:20;;;;;;;;;;;;;;;32.51;32.12;97571.06;5135117;27;19916;-89
2023/07/30 01:38:47;;;;;;;;;;;;;;;32.26;32.32;97566.13;5134980;27;19960;-89
2023/07/30 01:41:13;;;;;;;;;;;;;;;32.29;32.06;97565.91;5134072;27;20407;-89
2023/07/30 01:43:39;;;;;;;;;;;;;;;32.30;32.30;97570.28;5134755;27;20363;-89
2023/07/30 01:46:05;;;;;;;;;;;;;;;32.45;31.75;97573.00;5135170;27;19911;-89
2023/07/30 01:48:31;;;;;;;;;;;;;;;32.57;31.76;97572.66;5134347;27;20002;-89
2023/07/30 01:50:57;;;;;;;;;;;;;;;32.48;31.92;97561.44;5133553;27;19958;-89
2023/07/30 01:53:23;;;;;;;;;;;;;;;32.39;31.35;97572.97;5133335;27;19919;-89
2023/07/30 01:55:49;;;;;;;;;;;;;;;32.28;31.67;97563.59;5134778;27;19916;-89
2023/07/30 01:58:15;;;;;;;;;;;;;;;32.39;31.68;97563.66;5132880;27;19912;-89
2023/07/30 02:00:41;;;;;;;;;;;;;;;32.35;31.22;97566.72;5123588;27;19920;-88
2023/07/30 02:03:07;;;;;;;;;;;;;;;32.10;32.35;97576.06;5122049;27;20017;-89
2023/07/30 02:05:33;;;;;;;;;;;;;;;32.00;32.22;97571.81;5115132;27;20383;-88
2023/07/30 02:07:59;;;;;;;;;;;;;;;31.70;33.43;97582.53;5127239;27;19966;-88
2023/07/30 02:10:26;;;;;;;;;;;;;;;31.43;33.86;97580.16;5134561;27;20299;-89
2023/07/30 02:12:52;;;;;;;;;;;;;;;30.79;35.45;97580.22;5134429;27;19915;-88
2023/07/30 02:15:18;;;;;;;;;;;;;;;30.65;36.05;97573.28;5133786;27;19916;-88
2023/07/30 02:17:44;;;;;;;;;;;;;;;30.22;36.80;97554.28;5134514;27;19923;-88
2023/07/30 02:20:10;;;;;;;;;;;;;;;30.43;36.65;97560.81;5119429;27;19923;-88
2023/07/30 02:22:36;;;;;;;;;;;;;;;30.60;36.29;97567.53;5113872;28;20015;-88
2023/07/30 02:25:02;;;;;;;;;;;;;;;30.98;35.45;97563.75;5113891;28;20004;-87
2023/07/30 02:27:28;;;;;;;;;;;;;;;31.07;35.52;97572.94;5113618;28;19922;-89
2023/07/30 02:29:54;;;;;;;;;;;;;;;31.28;34.94;97562.38;5113891;28;19915;-89
2023/07/30 02:32:20;;;;;;;;;;;;;;;31.50;34.41;97571.22;5114772;28;19968;-88
2023/07/30 02:34:46;;;;;;;;;;;;;;;31.66;34.02;97567.81;5134311;27;19915;-89
2023/07/30 02:37:12;;;;;;;;;;;;;;;31.77;33.96;97575.66;5134363;27;19916;-89
2023/07/30 02:39:39;;;;;;;;;;;;;;;31.74;33.80;97571.75;5134302;27;19923;-89
2023/07/30 02:42:05;;;;;;;;;;;;;;;31.86;33.25;97576.28;5133964;27;19948;-88
2023/07/30 02:44:31;;;;;;;;;;;;;;;31.82;33.67;97578.56;5134380;27;19915;-89
2023/07/30 02:46:57;;;;;;;;;;;;;;;32.12;33.14;97570.66;5134362;27;19936;-89
2023/07/30 02:49:23;;;;;;;;;;;;;;;32.32;32.73;97572.66;5131787;27;19923;-89
2023/07/30 02:51:49;;;;;;;;;;;;;;;32.11;32.87;97583.31;5113494;28;19930;-89
2023/07/30 02:54:20;;;;;;;;;;;;;;;32.30;32.63;97578.81;5112252;28;20321;-89
2023/07/30 02:56:46;;;;;;;;;;;;;;;32.38;32.37;97579.16;5113373;28;19920;-89
2023/07/30 02:59:12;;;;;;;;;;;;;;;32.32;32.56;97581.97;5124245;27;19916;-88
2023/07/30 03:01:38;;;;;;;;;;;;;;;32.32;32.40;97575.50;5136447;27;19915;-89
2023/07/30 03:04:05;;;;;;;;;;;;;;;32.24;32.30;97580.06;5138080;27;19920;-89
2023/07/30 03:06:31;;;;;;;;;;;;;;;32.15;32.50;97586.69;5134014;27;19916;-89
2023/07/30 03:08:57;;;;;;;;;;;;;;;32.12;32.46;97589.75;5117262;28;19945;-89
2023/07/30 03:11:23;;;;;;;;;;;;;;;32.24;32.21;97580.84;5116935;28;20388;-89
2023/07/30 03:13:49;;;;;;;;;;;;;;;32.34;32.21;97578.59;5116075;28;19926;-89
2023/07/30 03:16:15;;;;;;;;;;;;;;;32.14;32.45;97587.97;5117273;28;19915;-89
2023/07/30 03:18:41;;;;;;;;;;;;;;;32.20;32.21;97590.88;5117307;28;20268;-89
2023/07/30 03:21:07;;;;;;;;;;;;;;;32.34;32.26;97590.75;5117074;28;19919;-89
2023/07/30 03:23:33;;;;;;;;;;;;;;;32.44;31.90;97589.28;5117789;27;19970;-88
2023/07/30 03:26:00;;;;;;;;;;;;;;;32.60;31.80;97599.28;5116790;28;19930;-89
2023/07/30 03:28:26;;;;;;;;;;;;;;;32.79;31.12;97599.69;5116965;28;19919;-89
2023/07/30 03:30:52;;;;;;;;;;;;;;;32.90;30.94;97605.47;5116978;28;19915;-89
2023/07/30 03:33:18;;;;;;;;;;;;;;;32.93;30.53;97613.75;5117152;28;20296;-89
2023/07/30 03:35:44;;;;;;;;;;;;;;;32.85;30.97;97623.25;5116828;27;19922;-89
2023/07/30 03:38:10;;;;;;;;;;;;;;;32.47;31.08;97632.97;5116793;28;19920;-89
2023/07/30 03:40:36;;;;;;;;;;;;;;;32.21;31.80;97632.22;5120384;27;20311;-89
2023/07/30 03:43:02;;;;;;;;;;;;;;;32.22;32.01;97633.75;5137196;27;19922;-89
2023/07/30 03:45:28;;;;;;;;;;;;;;;32.24;31.88;97637.66;5137603;27;19923;-89
2023/07/30 03:47:54;;;;;;;;;;;;;;;32.59;31.87;97641.16;5137231;27;19922;-89
2023/07/30 03:50:20;;;;;;;;;;;;;;;32.45;31.97;97644.06;5137010;27;19916;-89
2023/07/30 03:52:46;;;;;;;;;;;;;;;32.26;32.50;97640.78;5137321;27;19922;-88
2023/07/30 03:55:12;;;;;;;;;;;;;;;32.39;32.19;97644.03;5137114;27;20443;-89
2023/07/30 03:57:38;;;;;;;;;;;;;;;32.67;31.85;97641.47;5132128;27;19947;-89
2023/07/30 04:00:05;;;;;;;;;;;;;;;32.75;31.62;97636.88;5133401;27;19969;-89
2023/07/30 04:02:31;;;;;;;;;;;;;;;32.93;31.34;97635.75;5136855;27;19923;-89
2023/07/30 04:04:57;;;;;;;;;;;;;;;32.74;31.54;97632.50;5136794;27;19915;-89
2023/07/30 04:07:23;;;;;;;;;;;;;;;32.50;32.08;97632.00;5136816;27;19926;-89
2023/07/30 04:09:49;;;;;;;;;;;;;;;32.82;31.35;97624.25;5135971;27;19931;-89
2023/07/30 04:12:15;;;;;;;;;;;;;;;32.99;31.29;97633.72;5135473;27;19916;-90
2023/07/30 04:14:41;;;;;;;;;;;;;;;32.83;31.83;97643.69;5131599;27;19935;-90
2023/07/30 04:17:07;;;;;;;;;;;;;;;32.94;31.54;97643.75;5116115;28;19915;-90
2023/07/30 04:19:33;;;;;;;;;;;;;;;32.89;31.76;97653.03;5116089;28;20428;-90
2023/07/30 04:21:59;;;;;;;;;;;;;;;33.11;31.86;97658.94;5116010;28;20013;-90
2023/07/30 04:24:26;;;;;;;;;;;;;;;33.34;31.59;97660.66;5115879;28;19961;-90
2023/07/30 04:26:52;;;;;;;;;;;;;;;33.45;31.57;97654.22;5115890;28;19912;-90
2023/07/30 04:29:18;;;;;;;;;;;;;;;33.47;31.43;97662.28;5116145;28;20302;-90
2023/07/30 04:31:44;;;;;;;;;;;;;;;33.51;31.05;97668.50;5116311;27;19911;-90
2023/07/30 04:34:10;;;;;;;;;;;;;;;33.49;31.69;97673.94;5115789;28;19923;-90
2023/07/30 04:36:36;;;;;;;;;;;;;;;33.67;31.99;97679.25;5114353;27;19915;-90
2023/07/30 04:39:02;;;;;;;;;;;;;;;33.85;31.29;97678.81;5115624;28;19927;-89
2023/07/30 04:41:28;;;;;;;;;;;;;;;33.95;32.13;97680.94;5115511;28;19969;-90
2023/07/30 04:43:54;;;;;;;;;;;;;;;34.33;33.03;97676.69;5115638;28;19916;-90
2023/07/30 04:46:20;;;;;;;;;;;;;;;34.75;30.97;97667.97;5115463;28;19915;-91
2023/07/30 04:48:46;;;;;;;;;;;;;;;34.88;30.83;97667.47;5119919;27;19923;-91
2023/07/30 04:51:12;;;;;;;;;;;;;;;35.08;31.04;97669.31;5115462;28;19915;-90
2023/07/30 04:53:38;;;;;;;;;;;;;;;35.30;30.57;97666.44;5115121;28;19923;-91
2023/07/30 04:56:04;;;;;;;;;;;;;;;35.39;29.85;97664.09;5115492;28;19916;-90
2023/07/30 04:58:30;;;;;;;;;;;;;;;35.36;29.63;97678.63;5115232;28;20330;-90
2023/07/30 05:00:56;;;;;;;;;;;;;;;35.29;29.24;97682.78;5113717;28;19945;-90
2023/07/30 05:03:22;;;;;;;;;;;;;;;35.06;28.93;97686.16;5115392;28;19916;-90
2023/07/30 05:05:48;;;;;;;;;;;;;;;34.87;29.55;97683.03;5115638;27;19916;-90
2023/07/30 05:08:14;;;;;;;;;;;;;;;34.87;29.93;97685.88;5114914;28;19947;-90
2023/07/30 05:10:40;;;;;;;;;;;;;;;34.87;29.38;97685.13;5115048;28;19924;-91
2023/07/30 05:13:06;;;;;;;;;;;;;;;34.91;29.64;97697.81;5115114;28;19915;-90
2023/07/30 05:15:33;;;;;;;;;;;;;;;34.64;29.51;97698.56;5115018;28;20006;-90
2023/07/30 05:17:58;;;;;;;;;;;;;;;34.34;30.16;97700.28;5114922;28;19922;-90
2023/07/30 05:20:24;;;;;;;;;;;;;;;34.54;29.98;97709.41;5113521;28;19912;-90
2023/07/30 05:22:50;;;;;;;;;;;;;;;34.55;30.64;97708.13;5114398;27;19915;-89
2023/07/30 05:25:17;;;;;;;;;;;;;;;34.54;30.00;97709.41;5114981;28;19916;-90
2023/07/30 05:27:43;;;;;;;;;;;;;;;34.83;31.69;97708.19;5114721;28;19915;-90
2023/07/30 05:30:09;;;;;;;;;;;;;;;35.13;30.57;97717.81;5114609;28;20014;-90
2023/07/30 05:32:35;;;;;;;;;;;;;;;35.38;29.39;97711.06;5114679;28;20380;-90
2023/07/30 05:35:01;;;;;;;;;;;;;;;35.60;30.76;97709.50;5114470;28;19930;-90
2023/07/30 05:37:27;;;;;;;;;;;;;;;35.83;29.51;97708.94;5114372;28;20018;-90
2023/07/30 05:39:53;;;;;;;;;;;;;;;35.97;30.10;97707.06;5121194;27;19928;-90
2023/07/30 05:42:19;;;;;;;;;;;;;;;36.17;29.45;97711.72;5134936;27;19922;-88
2023/07/30 05:44:45;;;;;;;;;;;;;;;36.16;28.52;97716.63;5135096;27;20316;-90
2023/07/30 05:47:11;;;;;;;;;;;;;;;36.04;27.82;97706.56;5126238;27;19916;-89
2023/07/30 05:49:37;;;;;;;;;;;;;;;35.55;27.47;97710.28;5115269;27;19920;-89
2023/07/30 05:52:04;;;;;;;;;;;;;;;35.52;28.70;97715.00;5114082;28;19942;-90
2023/07/30 05:54:30;;;;;;;;;;;;;;;35.68;27.73;97708.47;5114186;28;19968;-90
2023/07/30 05:56:56;;;;;;;;;;;;;;;35.87;28.22;97715.16;5121074;27;20329;-89
2023/07/30 05:59:22;;;;;;;;;;;;;;;35.87;27.61;97720.88;5134754;27;20068;-89
2023/07/30 06:01:48;;;;;;;;;;;;;;;35.61;28.31;97711.06;5134574;27;20009;-89
2023/07/30 06:04:14;;;;;;;;;;;;;;;35.59;28.13;97707.97;5134383;27;20017;-89
2023/07/30 06:06:40;;;;;;;;;;;;;;;35.55;27.82;97716.00;5134677;27;20015;-89
2023/07/30 06:09:06;;;;;;;;;;;;;;;34.88;28.55;97704.56;5134520;27;19965;-88
2023/07/30 06:11:32;;;;;;;;;;;;;;;34.90;29.65;97709.75;5133328;27;20387;-89
2023/07/30 06:13:58;;;;;;;;;;;;;;;35.35;28.98;97702.78;5133796;27;19916;-88
2023/07/30 06:16:24;;;;;;;;;;;;;;;35.37;28.84;97703.81;5134952;27;19926;-89
2023/07/30 06:18:50;;;;;;;;;;;;;;;35.61;29.07;97713.94;5134703;27;19923;-89
2023/07/30 06:21:16;;;;;;;;;;;;;;;35.71;27.78;97707.41;5134675;27;20360;-87
2023/07/30 06:23:42;;;;;;;;;;;;;;;35.07;28.85;97710.56;5134835;27;19922;-89
2023/07/30 06:26:08;;;;;;;;;;;;;;;35.19;29.44;97706.41;5134577;27;19915;-89
2023/07/30 06:28:34;;;;;;;;;;;;;;;35.21;29.00;97709.53;5134668;27;20425;-88
2023/07/30 06:31:01;;;;;;;;;;;;;;;34.79;29.51;97709.72;5133564;27;19923;-89
2023/07/30 06:33:27;;;;;;;;;;;;;;;35.03;29.65;97704.34;5135737;27;20384;-89
2023/07/30 06:35:53;;;;;;;;;;;;;;;35.48;29.42;97707.94;5127712;27;19916;-90
2023/07/30 06:38:19;;;;;;;;;;;;;;;35.67;28.92;97701.19;5117974;28;20406;-89
2023/07/30 06:40:45;;;;;;;;;;;;;;;35.78;29.48;97706.88;5117796;28;19924;-89
2023/07/30 06:43:11;;;;;;;;;;;;;;;35.79;29.01;97702.72;5117974;28;19916;-90
2023/07/30 06:45:37;;;;;;;;;;;;;;;36.20;29.69;97702.09;5116430;28;20080;-90
2023/07/30 06:48:03;;;;;;;;;;;;;;;36.48;27.64;97711.34;5118424;27;20169;-90
2023/07/30 06:50:29;;;;;;;;;;;;;;;36.42;28.63;97713.41;5117944;28;19947;-90
2023/07/30 06:52:55;;;;;;;;;;;;;;;36.32;28.61;97706.41;5117743;28;19942;-87
2023/07/30 06:55:21;;;;;;;;;;;;;;;35.96;28.95;97714.09;5117731;28;19916;-87
2023/07/30 06:57:47;;;;;;;;;;;;;;;36.11;29.29;97708.84;5117835;28;19955;-89
2023/07/30 07:00:18;;;;;;;;;;;;;;;36.41;28.50;97709.00;5117431;28;19919;-89
2023/07/30 07:02:45;;;;;;;;;;;;;;;36.64;28.41;97710.47;5117609;28;19916;-89
2023/07/30 07:05:11;;;;;;;;;;;;;;;36.67;28.26;97712.25;5118262;27;19916;-89
2023/07/30 07:07:37;;;;;;;;;;;;;;;36.68;27.77;97710.94;5117407;28;20006;-89
2023/07/30 07:10:03;;;;;;;;;;;;;;;36.59;29.10;97708.41;5117355;28;20337;-89
2023/07/30 07:12:29;;;;;;;;;;;;;;;36.31;29.05;97717.09;5117436;28;20437;-89
2023/07/30 07:14:58;;;;;;;;;;;;;;;36.47;29.05;97715.50;5117268;28;20382;-89
2023/07/30 07:17:24;;;;;;;;;;;;;;;36.62;28.65;97713.03;5117300;28;19970;-90
2023/07/30 07:19:50;;;;;;;;;;;;;;;36.76;28.74;97714.03;5117198;28;20380;-89
2023/07/30 07:22:17;;;;;;;;;;;;;;;36.66;27.42;97705.75;5116383;27;20010;-89
2023/07/30 07:24:46;;;;;;;;;;;;;;;36.57;29.04;97711.78;5117203;28;19919;-90
2023/07/30 07:27:12;;;;;;;;;;;;;;;36.57;28.05;97716.75;5117127;28;19923;-90
2023/07/30 07:29:39;;;;;;;;;;;;;;;36.59;28.54;97716.97;5117719;27;19922;-90
2023/07/30 07:32:05;;;;;;;;;;;;;;;36.68;28.54;97714.59;5120717;27;20376;-90
2023/07/30 07:34:31;;;;;;;;;;;;;;;36.77;28.02;97715.56;5137618;27;19968;-90
2023/07/30 07:36:57;;;;;;;;;;;;;;;36.72;28.29;97725.72;5132464;27;20337;-89
2023/07/30 07:39:23;;;;;;;;;;;;;;;36.72;27.18;97717.16;5136779;27;19980;-88
2023/07/30 07:41:49;;;;;;;;;;;;;;;36.59;28.17;97714.91;5137320;27;20019;-89
2023/07/30 07:44:15;;;;;;;;;;;;;;;36.89;28.04;97720.69;5131668;27;19919;-89
2023/07/30 07:46:41;;;;;;;;;;;;;;;37.05;27.97;97714.09;5116279;28;19923;-90
2023/07/30 07:49:08;;;;;;;;;;;;;;;37.25;27.73;97705.06;5116623;28;20280;-90
2023/07/30 07:51:34;;;;;;;;;;;;;;;37.16;28.04;97716.84;5116674;28;19946;-89
2023/07/30 07:54:00;;;;;;;;;;;;;;;37.29;26.30;97708.44;5116601;28;19916;-89
2023/07/30 07:56:26;;;;;;;;;;;;;;;37.33;27.89;97703.19;5117119;27;19970;-90
2023/07/30 07:58:52;;;;;;;;;;;;;;;37.18;26.26;97707.75;5116522;28;19916;-88
2023/07/30 08:01:18;;;;;;;;;;;;;;;36.71;26.48;97698.44;5116078;28;19915;-88
2023/07/30 08:03:44;;;;;;;;;;;;;;;36.53;26.40;97696.19;5116430;28;19916;-89
2023/07/30 08:06:10;;;;;;;;;;;;;;;36.79;27.83;97708.00;5118427;27;19927;-90
2023/07/30 08:08:37;;;;;;;;;;;;;;;36.96;26.75;97714.41;5136887;27;19915;-88
2023/07/30 08:11:07;;;;;;;;;;;;;;;37.17;27.00;97706.97;5136629;27;20280;-89
2023/07/30 08:13:34;;;;;;;;;;;;;;;37.59;26.49;97707.66;5135944;27;20372;-89
2023/07/30 08:16:00;;;;;;;;;;;;;;;37.78;27.08;97697.81;5136381;27;19922;-90
2023/07/30 08:18:26;;;;;;;;;;;;;;;37.87;26.27;97708.16;5136675;27;20394;-89
2023/07/30 08:20:52;;;;;;;;;;;;;;;38.15;27.04;97704.97;5135801;27;20376;-90
2023/07/30 08:23:18;;;;;;;;;;;;;;;38.37;26.45;97704.72;5135442;27;19922;-90
2023/07/30 08:25:44;;;;;;;;;;;;;;;38.55;25.16;97701.84;5115959;28;20007;-90
2023/07/30 08:28:10;;;;;;;;;;;;;;;38.36;26.35;97715.41;5115928;28;19962;-90
2023/07/30 08:30:36;;;;;;;;;;;;;;;38.42;25.17;97701.75;5116376;27;19916;-89
2023/07/30 08:33:02;;;;;;;;;;;;;;;38.11;24.80;97707.34;5115866;28;20438;-90
2023/07/30 08:35:28;;;;;;;;;;;;;;;37.52;25.13;97705.38;5128925;27;19946;-88
2023/07/30 08:37:54;;;;;;;;;;;;;;;37.57;25.79;97702.47;5115950;28;19916;-89
2023/07/30 08:40:23;;;;;;;;;;;;;;;37.52;25.65;97699.66;5115905;28;19923;-89
2023/07/30 08:42:52;;;;;;;;;;;;;;;37.43;24.87;97708.59;5115711;28;20316;-88
2023/07/30 08:45:18;;;;;;;;;;;;;;;37.34;25.94;97709.69;5115597;28;20006;-88
2023/07/30 08:47:45;;;;;;;;;;;;;;;37.13;25.83;97717.16;5116028;27;19915;-89
2023/07/30 08:50:11;;;;;;;;;;;;;;;37.25;25.98;97719.38;5115373;27;19916;-90
2023/07/30 08:52:38;;;;;;;;;;;;;;;37.25;25.55;97727.22;5115419;28;20395;-88
2023/07/30 08:55:05;;;;;;;;;;;;;;;37.44;25.15;97727.34;5115493;28;20001;-89
2023/07/30 08:57:31;;;;;;;;;;;;;;;37.31;25.44;97731.59;5115518;28;19915;-89
2023/07/30 09:00:03;;;;;;;;;;;;;;;37.47;25.22;97729.13;5115283;28;19923;-89
2023/07/30 09:02:44;;;;;;;;;;;;;;;37.44;25.23;97727.34;5115192;28;19968;-88
2023/07/30 09:05:10;;;;;;;;;;;;;;;37.24;24.39;97734.25;5115665;27;20010;-87
2023/07/30 09:07:36;;;;;;;;;;;;;;;36.90;25.12;97727.19;5135344;27;19936;-88
2023/07/30 09:10:03;;;;;;;;;;;;;;;37.34;24.98;97735.47;5135509;27;20292;-88
2023/07/30 09:12:30;;;;;;;;;;;;;;;37.54;24.71;97731.41;5135692;27;19915;-88
2023/07/30 09:14:56;;;;;;;;;;;;;;;37.83;24.97;97733.50;5135567;27;20398;-89
2023/07/30 09:17:22;;;;;;;;;;;;;;;38.10;25.35;97723.00;5135494;27;19916;-89
2023/07/30 09:19:50;;;;;;;;;;;;;;;38.40;24.44;97726.56;5135249;27;19954;-90
2023/07/30 09:22:19;;;;;;;;;;;;;;;38.59;23.32;97725.25;5116622;27;19952;-89
2023/07/30 09:24:45;;;;;;;;;;;;;;;38.53;24.28;97721.69;5115071;28;20324;-89
2023/07/30 09:27:12;;;;;;;;;;;;;;;38.46;23.67;97718.66;5114819;28;20360;-89
2023/07/30 09:29:38;;;;;;;;;;;;;;;38.67;24.75;97714.69;5114973;28;20322;-89
2023/07/30 09:32:07;;;;;;;;;;;;;;;38.82;24.17;97725.72;5114628;28;19926;-89
2023/07/30 09:34:33;;;;;;;;;;;;;;;38.37;23.28;97725.53;5126197;27;19915;-88
2023/07/30 09:36:59;;;;;;;;;;;;;;;38.18;23.45;97721.88;5135094;27;20410;-88
2023/07/30 09:39:25;;;;;;;;;;;;;;;37.87;23.99;97723.28;5115037;27;19934;-88
2023/07/30 09:41:52;;;;;;;;;;;;;;;38.04;24.71;97714.47;5114637;28;19923;-89
2023/07/30 09:44:20;;;;;;;;;;;;;;;37.78;24.55;97714.22;5114842;28;19959;-88
2023/07/30 09:46:47;;;;;;;;;;;;;;;38.23;24.62;97708.78;5114476;28;20403;-89
2023/07/30 09:49:14;;;;;;;;;;;;;;;38.18;25.09;97715.34;5114208;28;19916;-89
2023/07/30 09:51:40;;;;;;;;;;;;;;;38.11;24.09;97707.34;5113009;28;19916;-88
2023/07/30 09:54:07;;;;;;;;;;;;;;;37.95;23.94;97709.88;5114567;28;19947;-89
2023/07/30 09:56:35;;;;;;;;;;;;;;;38.22;23.64;97695.75;5114360;27;20380;-89
2023/07/30 09:59:01;;;;;;;;;;;;;;;38.84;24.50;97705.88;5114568;28;19915;-89
2023/07/30 10:01:28;;;;;;;;;;;;;;;38.70;22.31;97698.47;5113915;28;19969;-88
2023/07/30 10:03:57;;;;;;;;;;;;;;;37.97;24.83;97700.75;5114221;28;19942;-88
2023/07/30 10:06:25;;;;;;;;;;;;;;;37.73;23.18;97704.38;5112746;28;19911;-89
2023/07/30 10:08:52;;;;;;;;;;;;;;;37.99;24.29;97698.91;5112764;28;19963;-89
2023/07/30 10:11:19;;;;;;;;;;;;;;;38.53;23.68;97710.19;5115621;28;19965;-89
2023/07/30 10:13:46;;;;;;;;;;;;;;;38.90;24.12;97706.56;5134578;27;20332;-89
2023/07/30 10:16:12;;;;;;;;;;;;;;;39.19;22.88;97699.06;5133084;27;20376;-90
2023/07/30 10:18:42;;;;;;;;;;;;;;;38.96;24.31;97704.38;5133529;28;20381;-89
2023/07/30 10:21:09;;;;;;;;;;;;;;;39.41;23.54;97710.19;5130171;27;20081;-90
2023/07/30 10:23:35;;;;;;;;;;;;;;;39.24;22.41;97704.72;5113975;28;19922;-89
2023/07/30 10:26:10;;;;;;;;;;;;;;;38.45;22.98;97697.81;5114000;28;20003;-90
2023/07/30 10:28:38;;;;;;;;;;;;;;;38.65;23.79;97702.97;5114806;28;19923;-89
2023/07/30 10:31:09;;;;;;;;;;;;;;;38.82;23.01;97699.13;5113644;28;19916;-89
2023/07/30 10:33:49;;;;;;;;;;;;;;;38.93;23.01;97702.59;5113929;28;19915;-90
2023/07/30 10:36:30;;;;;;;;;;;;;;;39.36;23.04;97697.47;5118402;28;19915;-89
2023/07/30 10:38:56;;;;;;;;;;;;;;;39.59;22.91;97700.75;5134387;27;19923;-88
2023/07/30 10:41:22;;;;;;;;;;;;;;;39.73;22.60;97696.56;5134360;27;19915;-90
2023/07/30 10:43:49;;;;;;;;;;;;;;;39.91;21.75;97695.66;5134271;27;19922;-89
2023/07/30 10:46:16;;;;;;;;;;;;;;;40.02;22.28;97694.72;5124284;27;19938;-89
2023/07/30 10:48:43;;;;;;;;;;;;;;;40.06;23.22;97691.50;5113838;28;19916;-89
2023/07/30 10:51:10;;;;;;;;;;;;;;;40.23;22.88;97689.84;5113932;28;20010;-89
2023/07/30 10:53:36;;;;;;;;;;;;;;;40.28;22.33;97694.69;5113939;28;20322;-89
2023/07/30 10:56:04;;;;;;;;;;;;;;;40.19;21.02;97688.63;5113676;28;19916;-88
2023/07/30 10:58:30;;;;;;;;;;;;;;;39.64;20.47;97687.59;5113980;28;19968;-88
2023/07/30 11:00:56;;;;;;;;;;;;;;;39.19;21.23;97688.34;5113654;28;19939;-88
2023/07/30 11:03:26;;;;;;;;;;;;;;;39.05;22.58;97683.88;5114165;28;19916;-89
2023/07/30 11:05:53;;;;;;;;;;;;;;;39.05;21.29;97688.81;5113491;28;19915;-89
2023/07/30 11:08:19;;;;;;;;;;;;;;;38.93;22.89;97684.59;5113647;28;19916;-89
2023/07/30 11:10:49;;;;;;;;;;;;;;;39.22;21.96;97684.41;5113428;28;19953;-88
2023/07/30 11:13:15;;;;;;;;;;;;;;;38.97;22.39;97679.31;5113843;28;20288;-88
2023/07/30 11:15:44;;;;;;;;;;;;;;;38.78;22.21;97681.44;5113310;28;19942;-89
2023/07/30 11:18:11;;;;;;;;;;;;;;;39.00;21.95;97678.97;5113813;28;19955;-89
2023/07/30 11:20:37;;;;;;;;;;;;;;;38.43;22.74;97686.09;5115488;28;19916;-88
2023/07/30 11:23:22;;;;;;;;;;;;;;;37.81;23.86;97688.13;5117210;27;19916;-88
2023/07/30 11:25:49;;;;;;;;;;;;;;;37.47;23.57;97684.06;5117163;28;19922;-88
2023/07/30 11:28:27;;;;;;;;;;;;;;;37.91;23.29;97675.00;5117017;28;20010;-89
2023/07/30 11:30:53;;;;;;;;;;;;;;;38.47;23.73;97685.78;5117059;28;19951;-89
2023/07/30 11:33:19;;;;;;;;;;;;;;;38.79;22.17;97680.88;5117000;28;19927;-89
2023/07/30 11:35:45;;;;;;;;;;;;;;;38.76;22.42;97681.22;5116897;27;19915;-89
2023/07/30 11:38:12;;;;;;;;;;;;;;;38.71;21.68;97677.09;5115959;27;19916;-88
2023/07/30 11:40:39;;;;;;;;;;;;;;;38.63;22.53;97681.88;5116839;28;19923;-89
2023/07/30 11:43:05;;;;;;;;;;;;;;;38.55;23.09;97690.38;5116699;28;19968;-89
2023/07/30 11:45:31;;;;;;;;;;;;;;;38.64;23.20;97684.22;5115618;28;20019;-89
2023/07/30 11:48:10;;;;;;;;;;;;;;;38.95;24.03;97679.09;5116865;28;20391;-90
2023/07/30 11:50:46;;;;;;;;;;;;;;;39.03;23.60;97675.03;5116740;28;19923;-89
2023/07/30 11:53:13;;;;;;;;;;;;;;;38.85;23.58;97680.81;5115875;27;20411;-89
2023/07/30 11:55:39;;;;;;;;;;;;;;;38.57;21.90;97684.84;5116592;28;20381;-88
2023/07/30 11:58:06;;;;;;;;;;;;;;;38.37;21.66;97682.50;5116351;28;19961;-88
2023/07/30 12:00:32;;;;;;;;;;;;;;;38.40;23.38;97681.44;5116371;28;19915;-89
2023/07/30 12:03:02;;;;;;;;;;;;;;;38.26;22.29;97679.78;5116550;28;19955;-87
2023/07/30 12:05:33;;;;;;;;;;;;;;;38.30;22.85;97683.13;5116419;28;20316;-88
2023/07/30 12:08:02;;;;;;;;;;;;;;;38.14;22.88;97691.94;5116559;27;19915;-88
2023/07/30 12:10:40;;;;;;;;;;;;;;;38.01;22.44;97687.66;5118867;27;20016;-87
2023/07/30 12:13:11;;;;;;;;;;;;;;;37.52;23.46;97683.22;5136707;27;19922;-88
2023/07/30 12:15:37;;;;;;;;;;;;;;;37.56;23.32;97671.47;5136705;27;19911;-89
2023/07/30 12:18:03;;;;;;;;;;;;;;;37.81;23.46;97675.91;5136280;27;20002;-89
2023/07/30 12:20:29;;;;;;;;;;;;;;;37.95;23.81;97683.31;5116197;28;19934;-89
2023/07/30 12:22:55;;;;;;;;;;;;;;;38.03;22.93;97684.25;5117052;27;19919;-89
2023/07/30 12:25:21;;;;;;;;;;;;;;;37.91;22.91;97677.88;5116088;28;19922;-88
2023/07/30 12:27:47;;;;;;;;;;;;;;;38.15;23.33;97687.75;5121529;27;19965;-89
2023/07/30 12:30:13;;;;;;;;;;;;;;;38.19;23.27;97683.25;5136445;27;19960;-89
2023/07/30 12:32:39;;;;;;;;;;;;;;;38.50;22.62;97685.47;5136091;27;19920;-89
2023/07/30 12:35:05;;;;;;;;;;;;;;;38.28;22.50;97676.38;5136584;27;19934;-89
2023/07/30 12:37:32;;;;;;;;;;;;;;;38.26;22.39;97674.03;5136499;27;19919;-89
2023/07/30 12:39:58;;;;;;;;;;;;;;;37.97;22.30;97666.34;5136175;27;19919;-88
2023/07/30 12:42:24;;;;;;;;;;;;;;;38.00;22.75;97670.97;5135937;27;19928;-89
2023/07/30 12:44:50;;;;;;;;;;;;;;;37.94;23.06;97665.34;5128613;27;19920;-89